Time;durP1;ratioP1;P1;durP2;ratioP2;P2;SDS_P1;SDS_P2;PMS_P1;PMS_P2;Temp;Humidity;BMP_temperature;BMP_pressure;BME280_temperature;BME280_humidity;BME280_pressure;Samples;Min_cycle;Max_cycle;Signal;HPM_P1;HPM_P2
2023/10/06 00:01:49;;;;;;;14.55;5.25;;;;;;;13.96;71.33;99614.16;5091903;28;20024;-48
2023/10/06 00:04:16;;;;;;;7.45;3.75;;;;;;;14.07;71.07;99609.28;5091896;28;20016;-48
2023/10/06 00:06:43;;;;;;;12.00;5.05;;;;;;;14.01;71.23;99620.66;5090820;28;20051;-49
2023/10/06 00:09:13;;;;;;;10.07;6.13;;;;;;;14.10;71.61;99619.44;5090715;28;20072;-48
2023/10/06 00:11:40;;;;;;;8.63;4.20;;;;;;;14.30;71.37;99615.00;5092097;28;20385;-48
2023/10/06 00:14:09;;;;;;;10.77;3.58;;;;;;;14.37;70.72;99621.13;5092094;28;20024;-48
2023/10/06 00:16:40;;;;;;;9.70;4.68;;;;;;;14.36;70.61;99616.81;5091547;28;20148;-49
2023/10/06 00:19:32;;;;;;;14.18;6.20;;;;;;;14.32;70.46;99620.09;5091838;28;20032;-49
2023/10/06 00:22:18;;;;;;;7.20;3.45;;;;;;;14.19;70.11;99624.34;5091777;28;20119;-48
2023/10/06 00:24:59;;;;;;;11.85;5.57;;;;;;;14.05;70.86;99620.03;5091709;28;20028;-48
2023/10/06 00:27:29;;;;;;;9.02;4.40;;;;;;;14.15;70.73;99617.03;5091637;28;20035;-48
2023/10/06 00:29:55;;;;;;;7.70;3.92;;;;;;;14.08;70.45;99616.19;5091715;28;20105;-48
2023/10/06 00:34:54;;;;;;;8.75;4.55;;;;;;;14.02;70.92;99615.16;5091649;28;20035;-48
2023/10/06 00:37:23;;;;;;;7.30;3.88;;;;;;;14.02;70.71;99616.97;5091557;28;20020;-48
2023/10/06 00:39:50;;;;;;;7.90;4.72;;;;;;;14.05;70.89;99619.25;5091480;28;20028;-48
2023/10/06 00:42:17;;;;;;;8.32;4.25;;;;;;;14.06;70.37;99615.56;5091485;28;20059;-48
2023/10/06 00:44:45;;;;;;;6.50;3.45;;;;;;;13.88;70.19;99605.56;5091458;28;20028;-48
2023/10/06 00:47:13;;;;;;;6.53;3.20;;;;;;;13.66;70.53;99602.25;5091424;28;20028;-48
2023/10/06 00:49:39;;;;;;;6.40;3.40;;;;;;;13.49;70.90;99596.53;5091464;28;20027;-48
2023/10/06 00:52:07;;;;;;;9.85;3.10;;;;;;;13.35;71.15;99601.72;5090183;28;20021;-48
2023/10/06 00:54:34;;;;;;;8.60;4.65;;;;;;;13.18;71.90;99597.78;5091414;28;20016;-48
2023/10/06 00:57:08;;;;;;;8.05;4.32;;;;;;;13.29;72.63;99591.97;5090121;28;20035;-49
2023/10/06 00:59:37;;;;;;;5.30;3.22;;;;;;;13.48;72.24;99592.25;5092321;28;20020;-48
2023/10/06 01:02:08;;;;;;;6.78;3.10;;;;;;;13.43;71.51;99598.13;5095092;28;20078;-48
2023/10/06 01:04:42;;;;;;;10.48;5.20;;;;;;;13.35;72.04;99593.03;5094060;28;20031;-48
2023/10/06 01:07:08;;;;;;;6.97;4.07;;;;;;;13.27;72.14;99601.06;5095138;28;20036;-48
2023/10/06 01:09:34;;;;;;;7.05;3.40;;;;;;;13.27;72.57;99596.59;5095020;28;20028;-48
2023/10/06 01:12:03;;;;;;;5.65;3.22;;;;;;;13.38;72.38;99603.16;5095093;28;20103;-48
2023/10/06 01:14:34;;;;;;;8.93;4.60;;;;;;;13.48;72.50;99597.53;5094968;28;20025;-48
2023/10/06 01:17:18;;;;;;;10.13;5.47;;;;;;;13.85;72.60;99598.88;5093415;28;20384;-49
2023/10/06 01:19:48;;;;;;;14.43;4.45;;;;;;;14.18;70.98;99590.22;5094739;28;20079;-48
2023/10/06 01:22:41;;;;;;;10.52;4.18;;;;;;;14.01;69.98;99589.78;5094878;28;20024;-49
2023/10/06 01:25:19;;;;;;;7.65;4.63;;;;;;;13.85;70.17;99595.44;5094811;28;20503;-48
2023/10/06 01:27:44;;;;;;;9.73;5.60;;;;;;;13.95;71.07;99601.94;5094815;28;20032;-48
2023/10/06 01:30:17;;;;;;;7.72;4.68;;;;;;;14.16;70.38;99589.59;5094697;28;20028;-48
2023/10/06 01:32:45;;;;;;;9.15;4.18;;;;;;;14.24;69.71;99589.41;5094935;28;20047;-48
2023/10/06 01:35:12;;;;;;;4.82;2.97;;;;;;;14.15;69.06;99586.16;5093322;28;20036;-48
2023/10/06 01:37:45;;;;;;;7.90;3.28;;;;;;;13.94;69.05;99583.66;5093195;28;20426;-48
2023/10/06 01:40:34;;;;;;;4.90;2.88;;;;;;;13.69;68.87;99586.88;5094458;28;20020;-48
2023/10/06 01:42:58;;;;;;;5.15;2.97;;;;;;;13.33;69.27;99582.66;5094279;28;20144;-48
2023/10/06 01:45:24;;;;;;;9.43;3.22;;;;;;;13.14;70.62;99580.72;5094401;28;20509;-48
2023/10/06 01:48:09;;;;;;;10.15;3.85;;;;;;;13.09;71.49;99580.50;5094647;28;20037;-48
2023/10/06 01:50:35;;;;;;;;;;;;;;;13.16;71.76;99573.44;5094780;28;20506;-48
2023/10/06 01:53:06;;;;;;;7.85;3.88;;;;;;;13.29;71.32;99575.31;5094256;28;19908;-48
2023/10/06 01:55:37;;;;;;;10.55;4.45;;;;;;;13.33;71.50;99568.69;5094197;28;20028;-48
2023/10/06 01:58:04;;;;;;;11.70;4.72;;;;;;;13.46;71.28;99571.38;5094145;28;20031;-48
2023/10/06 02:00:34;;;;;;;6.53;3.78;;;;;;;13.43;70.45;99570.94;5094340;28;20038;-48
2023/10/06 02:03:09;;;;;;;9.18;4.80;;;;;;;13.22;71.20;99572.66;5092820;28;20067;-48
2023/10/06 02:05:38;;;;;;;7.47;4.68;;;;;;;13.34;71.29;99570.28;5094108;28;20027;-48
2023/10/06 02:08:14;;;;;;;8.90;5.00;;;;;;;13.56;71.43;99569.19;5094004;28;20024;-48
2023/10/06 02:10:42;;;;;;;11.73;5.72;;;;;;;13.79;70.80;99568.03;5093622;28;20077;-48
2023/10/06 02:13:08;;;;;;;11.30;5.47;;;;;;;13.93;70.35;99561.75;5093888;28;20112;-48
2023/10/06 02:15:34;;;;;;;11.05;3.83;;;;;;;14.01;69.88;99566.03;5092818;28;20103;-48
2023/10/06 02:17:59;;;;;;;8.95;3.70;;;;;;;14.08;69.60;99558.91;5092202;28;20048;-48
2023/10/06 02:22:52;;;;;;;6.97;4.32;;;;;;;14.15;68.43;99559.75;5093786;28;20020;-48
2023/10/06 02:25:18;;;;;;;8.40;4.75;;;;;;;14.11;69.00;99558.53;5093741;28;20024;-48
2023/10/06 02:27:47;;;;;;;10.88;5.60;;;;;;;14.20;68.94;99556.50;5092452;28;20520;-48
2023/10/06 02:30:15;;;;;;;7.80;4.55;;;;;;;14.23;68.67;99561.38;5093509;28;20035;-48
2023/10/06 02:32:44;;;;;;;9.45;4.38;;;;;;;14.08;68.41;99560.75;5093487;28;20379;-48
2023/10/06 02:35:12;;;;;;;8.73;3.95;;;;;;;13.88;68.50;99560.72;5093455;28;20024;-48
2023/10/06 02:37:40;;;;;;;12.05;4.85;;;;;;;13.81;69.44;99552.81;5093367;28;20122;-49
2023/10/06 02:40:16;;;;;;;9.23;4.03;;;;;;;13.91;69.57;99550.59;5093208;28;20077;-48
2023/10/06 02:42:53;;;;;;;11.13;5.63;;;;;;;13.97;69.41;99551.63;5093624;28;20028;-48
2023/10/06 02:45:21;;;;;;;15.35;3.88;;;;;;;13.99;69.04;99555.66;5093294;28;20024;-48
2023/10/06 02:47:57;;;;;;;8.98;3.97;;;;;;;13.91;68.88;99557.69;5093197;28;20525;-48
2023/10/06 02:50:23;;;;;;;7.05;4.05;;;;;;;13.75;68.73;99562.31;5093167;28;20501;-48
2023/10/06 02:52:53;;;;;;;79.22;29.33;;;;;;;13.82;69.56;99564.16;5093068;28;20501;-48
2023/10/06 02:55:20;;;;;;;10.02;4.88;;;;;;;14.01;69.36;99565.22;5091765;28;20505;-48
2023/10/06 02:57:52;;;;;;;13.02;5.30;;;;;;;14.06;68.78;99568.88;5092945;28;20020;-48
2023/10/06 03:05:49;;;;;;;9.27;5.75;;;;;;;13.72;69.01;99570.66;5084034;28;20040;-48
2023/10/06 03:08:20;;;;;;;9.90;3.78;;;;;;;13.74;68.52;99570.44;5093161;28;20128;-48
2023/10/06 03:10:49;;;;;;;8.25;4.30;;;;;;;13.66;68.49;99568.81;5092845;28;20035;-48
2023/10/06 03:13:17;;;;;;;11.07;4.82;;;;;;;13.75;69.16;99572.06;5092771;28;20024;-48
2023/10/06 03:15:46;;;;;;;9.43;4.95;;;;;;;13.99;68.96;99565.44;5091458;28;20481;-48
2023/10/06 03:18:16;;;;;;;12.40;5.57;;;;;;;14.21;68.17;99568.69;5091090;28;20048;-48
2023/10/06 03:23:57;;;;;;;12.15;5.10;;;;;;;14.47;66.97;99575.00;5069378;28;20107;-48
2023/10/06 03:26:33;;;;;;;11.00;6.07;;;;;;;14.56;66.56;99577.25;5070032;28;20078;-48
2023/10/06 03:29:02;;;;;;;11.48;5.53;;;;;;;14.67;66.24;99582.94;5069964;28;20532;-48
2023/10/06 03:31:45;;;;;;;9.93;4.82;;;;;;;14.68;65.77;99582.72;5069826;28;20490;-48
2023/10/06 03:34:16;;;;;;;9.63;5.45;;;;;;;14.55;65.56;99586.19;5069933;28;20097;-48
2023/10/06 03:37:04;;;;;;;10.18;3.70;;;;;;;14.50;65.63;99585.16;5069893;28;20055;-48
2023/10/06 03:39:38;;;;;;;7.50;3.65;;;;;;;14.33;65.33;99579.47;5069714;28;20028;-48
2023/10/06 03:42:10;;;;;;;11.82;5.00;;;;;;;13.94;65.51;99581.88;5069694;28;20040;-48
2023/10/06 03:44:36;;;;;;;9.32;3.33;;;;;;;13.59;66.08;99579.31;5069748;28;20067;-48
2023/10/06 03:47:07;;;;;;;10.00;4.25;;;;;;;13.28;66.85;99587.69;5069570;28;20063;-48
2023/10/06 03:49:33;;;;;;;7.60;3.78;;;;;;;13.10;67.61;99585.56;5069770;28;20086;-48
2023/10/06 03:51:59;;;;;;;13.27;3.60;;;;;;;12.91;67.82;99586.25;5069688;28;20502;-48
2023/10/06 03:54:25;;;;;;;10.38;3.20;;;;;;;12.68;68.19;99583.88;5079297;28;20024;-48
2023/10/06 03:56:51;;;;;;;12.70;4.30;;;;;;;12.45;69.02;99587.53;5091955;28;20039;-48
2023/10/06 03:59:17;;;;;;;7.88;3.33;;;;;;;12.25;69.74;99586.56;5092128;28;20024;-48
2023/10/06 04:01:46;;;;;;;14.57;3.50;;;;;;;12.07;69.64;99585.16;5091979;28;20020;-48
2023/10/06 04:04:14;;;;;;;8.52;3.85;;;;;;;11.91;70.30;99594.16;5091153;28;20031;-48
2023/10/06 04:06:40;;;;;;;10.52;4.10;;;;;;;11.72;71.10;99587.63;5091976;28;20032;-48
2023/10/06 04:09:08;;;;;;;5.97;3.22;;;;;;;11.58;71.49;99596.34;5091806;28;20020;-49
2023/10/06 04:11:34;;;;;;;12.02;4.55;;;;;;;11.47;72.23;99589.78;5091815;28;20576;-48
2023/10/06 04:14:00;;;;;;;7.53;4.30;;;;;;;11.52;72.45;99590.03;5091899;28;20044;-48
2023/10/06 04:16:26;;;;;;;11.18;5.05;;;;;;;11.60;72.82;99591.72;5091787;28;20024;-48
2023/10/06 04:18:52;;;;;;;15.38;5.97;;;;;;;11.91;73.29;99591.50;5090242;28;20537;-48
2023/10/06 04:21:20;;;;;;;12.05;5.07;;;;;;;12.46;73.21;99596.28;5091765;28;20028;-48
2023/10/06 04:23:45;;;;;;;11.23;5.85;;;;;;;12.75;71.92;99601.34;5092001;28;20103;-49
2023/10/06 04:26:14;;;;;;;7.43;3.50;;;;;;;12.82;70.93;99596.13;5091739;28;20562;-48
2023/10/06 04:28:42;;;;;;;6.88;3.25;;;;;;;12.58;70.31;99598.19;5090690;28;20077;-49
2023/10/06 04:31:07;;;;;;;9.77;3.80;;;;;;;12.39;70.30;99594.41;5090633;28;20032;-49
2023/10/06 04:33:33;;;;;;;5.97;3.65;;;;;;;12.13;70.25;99599.41;5091303;28;20020;-48
2023/10/06 04:36:08;;;;;;;7.47;3.50;;;;;;;11.82;70.74;99597.84;5094402;28;20028;-49
2023/10/06 04:38:39;;;;;;;5.55;3.30;;;;;;;11.55;71.63;99594.09;5094728;28;20032;-48
2023/10/06 04:41:09;;;;;;;8.60;3.90;;;;;;;11.36;72.50;99590.22;5095661;28;20030;-48
2023/10/06 04:43:36;;;;;;;12.82;4.68;;;;;;;11.19;73.14;99595.69;5094541;28;20038;-48
2023/10/06 04:46:08;;;;;;;13.18;4.07;;;;;;;11.07;73.80;99593.69;5095576;28;20020;-48
2023/10/06 04:48:35;;;;;;;15.02;5.18;;;;;;;11.03;74.62;99597.66;5095536;28;20024;-48
2023/10/06 04:51:03;;;;;;;7.30;3.80;;;;;;;11.18;74.71;99601.91;5095472;28;20073;-49
2023/10/06 04:53:31;;;;;;;8.10;3.65;;;;;;;11.22;74.45;99599.75;5095616;28;20017;-48
2023/10/06 04:55:57;;;;;;;6.90;3.63;;;;;;;11.21;74.48;99600.75;5095360;28;20085;-49
2023/10/06 04:58:23;;;;;;;8.60;4.40;;;;;;;11.39;75.02;99613.53;5094269;28;20028;-49
2023/10/06 05:00:53;;;;;;;15.90;5.22;;;;;;;11.72;74.48;99608.66;5093965;28;20067;-48
2023/10/06 05:03:20;;;;;;;9.18;4.20;;;;;;;11.85;73.74;99607.16;5093973;28;20020;-48
2023/10/06 05:05:45;;;;;;;10.13;4.70;;;;;;;11.85;73.70;99615.06;5094158;28;20028;-48
2023/10/06 05:08:14;;;;;;;6.60;3.58;;;;;;;11.89;72.98;99611.09;5076989;28;20024;-49
2023/10/06 05:10:41;;;;;;;9.82;3.80;;;;;;;11.70;72.51;99610.66;5095127;28;20020;-49
2023/10/06 05:13:07;;;;;;;8.38;3.65;;;;;;;11.52;73.27;99608.41;5093740;28;20077;-48
2023/10/06 05:15:40;;;;;;;10.48;3.65;;;;;;;11.41;73.08;99608.91;5093634;28;20024;-49
2023/10/06 05:18:07;;;;;;;10.15;3.83;;;;;;;11.22;73.40;99612.88;5094691;28;20060;-48
2023/10/06 05:20:35;;;;;;;14.02;4.45;;;;;;;11.07;73.91;99612.09;5093690;28;20023;-48
2023/10/06 05:23:07;;;;;;;15.40;4.30;;;;;;;10.97;74.38;99612.34;5094850;28;20051;-48
2023/10/06 05:25:36;;;;;;;17.98;4.68;;;;;;;10.92;74.88;99604.16;5094767;28;20020;-48
2023/10/06 05:28:03;;;;;;;13.27;5.53;;;;;;;11.16;75.66;99613.59;5094685;28;20063;-48
2023/10/06 05:30:32;;;;;;;18.80;4.28;;;;;;;11.56;75.54;99617.56;5094744;28;20017;-48
2023/10/06 05:32:59;;;;;;;7.95;3.50;;;;;;;11.67;74.01;99610.19;5093681;28;20028;-48
2023/10/06 05:35:35;;;;;;;11.25;4.05;;;;;;;11.57;73.45;99613.16;5094538;28;20494;-48
2023/10/06 05:38:03;;;;;;;10.95;3.97;;;;;;;11.35;73.42;99615.69;5094643;28;20445;-48
2023/10/06 05:40:29;;;;;;;7.70;3.67;;;;;;;11.17;73.75;99618.69;5094463;28;20051;-48
2023/10/06 05:42:56;;;;;;;20.58;5.85;;;;;;;11.16;75.02;99622.28;5093218;28;20031;-48
2023/10/06 05:45:21;;;;;;;12.85;4.90;;;;;;;11.40;74.97;99628.28;5093689;28;20432;-48
2023/10/06 05:47:51;;;;;;;10.82;4.53;;;;;;;11.45;74.66;99627.72;5094380;28;20027;-48
2023/10/06 05:50:29;;;;;;;15.05;4.20;;;;;;;11.42;74.30;99628.09;5094313;28;20048;-48
2023/10/06 05:53:02;;;;;;;19.65;5.60;;;;;;;11.42;74.10;99634.16;5093024;28;20393;-48
2023/10/06 05:55:33;;;;;;;12.20;4.05;;;;;;;11.39;74.11;99638.00;5094181;28;20028;-48
2023/10/06 05:58:00;;;;;;;13.75;4.00;;;;;;;11.34;73.87;99636.91;5094253;28;20039;-48
2023/10/06 06:00:31;;;;;;;9.27;4.32;;;;;;;11.27;73.83;99635.97;5093949;28;20036;-48
2023/10/06 06:02:59;;;;;;;5.95;3.97;;;;;;;11.20;74.28;99641.16;5094193;28;20085;-48
2023/10/06 06:05:29;;;;;;;12.35;4.30;;;;;;;11.15;74.40;99643.53;5092694;28;20115;-48
2023/10/06 06:07:59;;;;;;;8.50;4.25;;;;;;;11.24;74.82;99646.88;5094045;28;20048;-48
2023/10/06 06:10:28;;;;;;;7.88;4.57;;;;;;;11.44;74.23;99640.06;5093977;28;20111;-48
2023/10/06 06:12:55;;;;;;;14.02;5.00;;;;;;;11.43;73.67;99648.13;5093972;28;20070;-48
2023/10/06 06:15:21;;;;;;;30.95;7.43;;;;;;;11.47;74.18;99650.22;5093062;28;20074;-48
2023/10/06 06:17:47;;;;;;;27.98;5.68;;;;;;;11.98;74.37;99650.25;5093633;28;20048;-48
2023/10/06 06:20:18;;;;;;;28.10;6.03;;;;;;;12.73;73.09;99650.75;5093708;28;20381;-48
2023/10/06 06:22:55;;;;;;;12.77;5.82;;;;;;;13.15;71.17;99650.88;5093803;28;20024;-48
2023/10/06 06:25:22;;;;;;;8.35;4.18;;;;;;;13.18;69.29;99667.13;5093645;28;20077;-48
2023/10/06 06:27:50;;;;;;;12.52;5.05;;;;;;;12.99;69.09;99668.59;5093522;28;20440;-48
2023/10/06 06:30:18;;;;;;;16.30;4.38;;;;;;;13.01;69.73;99662.34;5093511;28;20113;-48
2023/10/06 06:32:48;;;;;;;15.07;4.55;;;;;;;13.11;69.13;99660.97;5092233;28;20085;-48
2023/10/06 06:35:16;;;;;;;11.93;4.30;;;;;;;13.09;68.09;99667.47;5093702;28;20028;-49
2023/10/06 06:37:42;;;;;;;9.63;3.72;;;;;;;13.02;68.09;99666.59;5092133;28;20024;-48
2023/10/06 06:40:13;;;;;;;17.70;6.50;;;;;;;13.15;69.03;99677.22;5093515;28;20016;-48
2023/10/06 06:42:40;;;;;;;13.25;4.28;;;;;;;13.54;68.34;99668.78;5093403;28;20046;-48
2023/10/06 06:45:07;;;;;;;15.38;6.40;;;;;;;13.84;67.44;99675.59;5093274;28;20027;-48
2023/10/06 06:47:32;;;;;;;12.82;4.72;;;;;;;14.28;66.64;99679.59;5091891;28;20490;-48
2023/10/06 06:50:00;;;;;;;19.83;5.53;;;;;;;14.58;65.74;99683.53;5093195;28;20024;-49
2023/10/06 06:52:28;;;;;;;28.25;6.60;;;;;;;15.41;64.00;99678.81;5093077;28;20035;-48
2023/10/06 06:54:53;;;;;;;37.40;6.03;;;;;;;16.37;61.06;99668.22;5093128;28;20047;-48
2023/10/06 06:57:19;;;;;;;39.88;6.63;;;;;;;17.12;58.91;99679.91;5092003;28;20521;-49
2023/10/06 06:59:45;;;;;;;27.70;5.68;;;;;;;17.65;56.40;99667.94;5091594;28;20044;-48
2023/10/06 07:02:11;;;;;;;35.60;5.78;;;;;;;18.19;54.50;99670.72;5091742;28;20055;-46
2023/10/06 07:04:38;;;;;;;47.80;8.07;;;;;;;18.75;52.74;99672.13;5091622;28;20450;-47
2023/10/06 07:07:03;;;;;;;124.10;13.13;;;;;;;19.28;51.29;99673.94;5092897;28;20051;-47
2023/10/06 07:09:29;;;;;;;421.60;39.92;;;;;;;19.71;49.98;99677.25;5092810;28;20493;-47
2023/10/06 07:11:55;;;;;;;707.58;70.85;;;;;;;20.31;48.22;99673.31;5092830;28;20407;-47
2023/10/06 07:14:21;;;;;;;87.40;12.55;;;;;;;20.80;46.84;99668.25;5092707;28;20057;-46
2023/10/06 07:16:47;;;;;;;380.75;34.60;;;;;;;21.20;45.48;99671.78;5092466;28;20566;-47
2023/10/06 07:19:14;;;;;;;96.32;11.88;;;;;;;21.52;44.43;99675.44;5091513;28;20028;-46
2023/10/06 07:21:43;;;;;;;169.57;16.83;;;;;;;21.77;43.17;99679.47;5092672;28;20129;-47
2023/10/06 07:24:13;;;;;;;144.52;16.20;;;;;;;22.06;42.51;99679.28;5091295;28;20020;-47
2023/10/06 07:26:42;;;;;;;127.18;13.05;;;;;;;22.12;41.97;99673.72;5092546;28;20031;-46
2023/10/06 07:29:08;;;;;;;183.48;19.55;;;;;;;22.27;41.79;99680.31;5092475;28;20020;-47
2023/10/06 07:31:34;;;;;;;41.35;6.65;;;;;;;22.34;40.78;99687.06;5092394;28;20039;-47
2023/10/06 07:34:03;;;;;;;123.78;15.55;;;;;;;22.31;41.10;99695.59;5092410;28;20031;-46
2023/10/06 07:36:29;;;;;;;97.10;10.23;;;;;;;22.39;40.59;99683.63;5092333;28;20024;-46
2023/10/06 07:38:55;;;;;;;192.50;15.05;;;;;;;22.66;40.08;99697.00;5074072;28;20050;-47
2023/10/06 07:41:25;;;;;;;54.38;6.47;;;;;;;22.87;39.54;99692.59;5092297;28;20394;-46
2023/10/06 07:43:51;;;;;;;47.38;6.00;;;;;;;23.15;39.09;99693.34;5091071;28;20031;-46
2023/10/06 07:46:17;;;;;;;40.40;6.72;;;;;;;23.66;38.31;99690.13;5092436;28;20375;-47
2023/10/06 07:48:46;;;;;;;22.25;5.35;;;;;;;24.10;37.44;99690.53;5090897;28;20047;-46
2023/10/06 07:51:21;;;;;;;25.35;5.80;;;;;;;24.53;37.18;99685.03;5090815;28;20074;-46
2023/10/06 07:53:48;;;;;;;;;;;;;;;25.35;37.46;99676.06;5091267;28;20085;-47
2023/10/06 07:56:14;;;;;;;96.45;10.75;;;;;;;25.61;35.43;99682.16;5091927;28;19950;-47
2023/10/06 07:58:43;;;;;;;50.35;7.43;;;;;;;25.58;34.97;99678.13;5091962;28;20125;-47
2023/10/06 08:01:10;;;;;;;30.38;5.35;;;;;;;25.40;35.26;99679.53;5091898;28;20028;-47
2023/10/06 08:03:38;;;;;;;85.45;9.55;;;;;;;25.37;34.92;99687.34;5092184;28;20636;-47
2023/10/06 08:06:16;;;;;;;101.15;9.65;;;;;;;25.40;34.98;99687.59;5091877;28;20024;-47
2023/10/06 08:08:42;;;;;;;366.05;25.30;;;;;;;25.55;34.91;99680.56;5090608;28;20051;-47
2023/10/06 08:11:08;;;;;;;363.05;27.63;;;;;;;26.04;34.38;99677.94;5090523;28;20067;-47
2023/10/06 08:13:37;;;;;;;432.17;32.65;;;;;;;26.58;34.01;99680.81;5090543;28;20054;-47
2023/10/06 08:16:06;;;;;;;67.70;7.50;;;;;;;27.07;32.84;99677.13;5090464;28;20101;-47
2023/10/06 08:18:32;;;;;;;305.58;26.40;;;;;;;27.39;32.04;99681.13;5091476;28;20051;-47
2023/10/06 08:21:03;;;;;;;56.00;6.68;;;;;;;28.01;31.32;99681.16;5091685;28;20052;-47
2023/10/06 08:23:31;;;;;;;457.58;36.17;;;;;;;28.32;30.98;99684.22;5091737;28;20085;-47
2023/10/06 08:25:57;;;;;;;81.88;8.48;;;;;;;28.43;30.21;99677.56;5091744;28;20050;-47
2023/10/06 08:28:26;;;;;;;225.15;20.02;;;;;;;28.57;30.34;99682.22;5090649;28;20035;-47
2023/10/06 08:30:52;;;;;;;276.05;26.52;;;;;;;28.96;29.68;99681.81;5091638;28;20021;-47
2023/10/06 08:33:18;;;;;;;156.00;17.13;;;;;;;29.39;29.35;99678.06;5090722;28;20028;-47
2023/10/06 08:35:44;;;;;;;184.73;28.58;;;;;;;29.94;28.71;99682.63;5090301;28;20020;-47
2023/10/06 08:38:10;;;;;;;151.05;17.65;;;;;;;30.44;27.81;99677.94;5091520;28;20076;-47
2023/10/06 08:40:41;;;;;;;254.10;22.52;;;;;;;30.67;27.13;99680.66;5090243;28;20021;-47
2023/10/06 08:43:08;;;;;;;285.33;29.80;;;;;;;30.54;27.62;99695.06;5090244;28;20032;-47
2023/10/06 08:45:42;;;;;;;153.50;16.00;;;;;;;30.40;27.86;99687.00;5091537;28;20016;-48
2023/10/06 08:48:14;;;;;;;114.20;12.15;;;;;;;30.48;27.60;99688.97;5091548;28;20032;-48
2023/10/06 08:50:43;;;;;;;190.80;20.23;;;;;;;30.69;27.09;99685.75;5091489;28;20065;-47
2023/10/06 08:53:14;;;;;;;247.18;26.90;;;;;;;30.40;27.60;99689.72;5091389;28;20042;-47
2023/10/06 08:55:44;;;;;;;103.80;14.30;;;;;;;30.11;28.01;99682.78;5074455;28;20039;-47
2023/10/06 08:58:14;;;;;;;55.83;8.80;;;;;;;30.26;28.16;99684.31;5090382;28;20031;-47
2023/10/06 09:00:43;;;;;;;151.38;15.18;;;;;;;30.57;27.91;99689.03;5090451;28;20057;-47
2023/10/06 09:03:14;;;;;;;24.88;5.75;;;;;;;30.55;27.58;99677.72;5091321;28;20139;-47
2023/10/06 09:05:46;;;;;;;75.07;10.15;;;;;;;30.48;27.93;99683.53;5091236;28;20040;-47
2023/10/06 09:08:17;;;;;;;184.15;20.90;;;;;;;30.69;27.29;99674.91;5089947;28;20075;-47
2023/10/06 09:10:54;;;;;;;231.48;24.38;;;;;;;30.85;26.90;99676.91;5091277;28;20027;-48
2023/10/06 09:13:21;;;;;;;115.30;13.38;;;;;;;30.97;26.81;99676.38;5090075;28;20043;-47
2023/10/06 09:16:06;;;;;;;12.57;4.70;;;;;;;31.21;27.06;99676.00;5091214;28;20372;-47
2023/10/06 09:18:34;;;;;;;43.17;6.60;;;;;;;31.51;25.83;99670.03;5090961;28;20046;-47
2023/10/06 09:21:19;;;;;;;22.90;5.70;;;;;;;31.64;25.94;99677.25;5092775;28;20062;-48
2023/10/06 09:23:44;;;;;;;14.48;4.53;;;;;;;32.25;25.55;99669.16;5094824;28;20061;-47
2023/10/06 09:26:12;;;;;;;9.55;3.90;;;;;;;32.45;24.77;99671.19;5093485;28;20040;-47
2023/10/06 09:28:52;;;;;;;28.77;6.30;;;;;;;32.52;24.68;99667.19;5094797;28;20512;-47
2023/10/06 09:31:37;;;;;;;17.65;5.35;;;;;;;32.62;24.02;99669.63;5094636;28;20055;-47
2023/10/06 09:34:07;;;;;;;24.85;6.28;;;;;;;32.65;24.28;99668.94;5094779;28;20056;-47
2023/10/06 09:36:36;;;;;;;33.85;5.30;;;;;;;32.67;24.07;99663.19;5094576;28;20028;-47
2023/10/06 09:39:23;;;;;;;54.65;8.27;;;;;;;32.59;23.53;99664.81;5094768;28;20124;-47
2023/10/06 09:41:50;;;;;;;20.20;4.40;;;;;;;32.15;23.61;99666.75;5094110;28;20127;-47
2023/10/06 09:44:18;;;;;;;79.05;8.48;;;;;;;31.70;24.24;99667.03;5093146;28;20394;-47
2023/10/06 09:46:46;;;;;;;181.65;19.08;;;;;;;31.68;24.73;99669.28;5094387;28;20032;-47
2023/10/06 09:49:16;;;;;;;144.30;13.77;;;;;;;31.90;24.26;99662.91;5094322;28;20031;-47
2023/10/06 09:51:42;;;;;;;98.18;10.75;;;;;;;31.75;24.67;99666.88;5093059;28;20020;-47
2023/10/06 09:54:10;;;;;;;152.30;15.98;;;;;;;31.48;24.58;99662.53;5094187;28;20168;-47
2023/10/06 09:56:40;;;;;;;60.88;10.90;;;;;;;31.05;25.39;99661.25;5094221;28;20032;-47
2023/10/06 09:59:12;;;;;;;65.32;8.43;;;;;;;31.19;25.33;99664.66;5094080;28;20020;-47
2023/10/06 10:01:42;;;;;;;28.05;5.60;;;;;;;31.33;24.94;99664.56;5094206;28;20040;-48
2023/10/06 10:04:12;;;;;;;13.52;4.45;;;;;;;31.54;24.49;99661.28;5092802;28;20032;-47
2023/10/06 10:06:45;;;;;;;21.77;5.65;;;;;;;31.88;24.25;99657.00;5094039;28;20036;-47
2023/10/06 10:09:17;;;;;;;20.40;4.57;;;;;;;32.25;23.81;99650.91;5092687;28;20024;-47
2023/10/06 10:12:08;;;;;;;24.88;5.43;;;;;;;32.51;23.89;99660.16;5094007;28;20516;-47
2023/10/06 10:15:02;;;;;;;30.70;5.65;;;;;;;32.75;23.80;99648.78;5092697;28;20028;-47
2023/10/06 10:17:31;;;;;;;91.47;12.20;;;;;;;32.92;23.48;99642.47;5093607;28;20040;-47
2023/10/06 10:19:58;;;;;;;109.57;13.25;;;;;;;33.14;23.20;99638.72;5093724;28;20036;-47
2023/10/06 10:22:24;;;;;;;193.27;20.02;;;;;;;33.14;23.07;99639.53;5093695;28;20034;-47
2023/10/06 10:24:50;;;;;;;188.20;19.45;;;;;;;33.02;23.47;99640.19;5093714;28;20547;-47
2023/10/06 10:27:22;;;;;;;240.23;24.42;;;;;;;33.03;23.21;99635.53;5092311;28;20074;-47
2023/10/06 10:29:49;;;;;;;171.43;19.83;;;;;;;33.35;23.33;99630.59;5093684;28;20028;-47
2023/10/06 10:32:22;;;;;;;13.45;5.07;;;;;;;33.65;22.80;99627.88;5092176;28;20024;-47
2023/10/06 10:35:12;;;;;;;131.25;15.50;;;;;;;33.37;22.88;99631.06;5093599;28;20051;-48
2023/10/06 10:38:06;;;;;;;83.72;9.98;;;;;;;33.18;23.25;99621.44;5093424;28;20024;-47
2023/10/06 10:40:48;;;;;;;47.47;5.50;;;;;;;33.51;22.67;99626.16;5091078;28;20069;-48
2023/10/06 10:43:15;;;;;;;80.85;9.10;;;;;;;33.62;22.51;99616.53;5093290;28;20024;-47
2023/10/06 10:45:45;;;;;;;95.22;10.48;;;;;;;33.40;22.62;99619.50;5092291;28;20035;-47
2023/10/06 10:48:15;;;;;;;78.82;9.98;;;;;;;33.13;23.18;99609.94;5093179;28;20023;-47
2023/10/06 10:50:54;;;;;;;265.30;25.15;;;;;;;32.75;24.02;99619.66;5093177;28;20417;-47
2023/10/06 10:53:21;;;;;;;161.32;15.15;;;;;;;32.89;23.49;99616.72;5093073;28;20439;-47
2023/10/06 10:55:50;;;;;;;310.35;29.05;;;;;;;33.04;23.25;99610.75;5108861;28;20027;-47
2023/10/06 10:58:44;;;;;;;157.82;16.10;;;;;;;33.34;23.00;99609.94;5092984;28;20016;-47
2023/10/06 11:01:29;;;;;;;95.50;10.32;;;;;;;33.55;22.94;99610.78;5092928;28;20089;-47
2023/10/06 11:04:52;;;;;;;82.97;10.90;;;;;;;33.73;22.47;99607.97;5092958;28;20024;-48
2023/10/06 11:07:11;;;;;;;66.15;8.77;;;;;;;33.93;22.17;99604.41;5087085;28;20036;-48
2023/10/06 11:12:23;;;;;;;28.25;5.93;;;;;;;33.92;22.46;99602.00;5093043;28;20157;-47
2023/10/06 11:14:52;;;;;;;223.00;20.30;;;;;;;33.89;22.50;99600.75;5092734;28;20134;-47
2023/10/06 11:17:26;;;;;;;82.47;10.18;;;;;;;33.60;22.56;99601.59;5092267;28;20594;-48
2023/10/06 11:20:27;;;;;;;62.60;7.85;;;;;;;33.48;22.91;99604.25;5074749;28;20024;-48
2023/10/06 11:22:57;;;;;;;75.03;10.55;;;;;;;33.62;22.88;99602.09;5092617;28;20119;-47
2023/10/06 11:25:27;;;;;;;29.80;7.38;;;;;;;33.55;23.13;99599.88;5092591;28;20058;-47
2023/10/06 11:27:56;;;;;;;53.35;9.52;;;;;;;33.77;22.58;99598.00;5092510;28;20024;-47
2023/10/06 11:30:23;;;;;;;11.18;3.90;;;;;;;33.70;22.59;99589.56;5092474;28;20073;-48
2023/10/06 11:32:50;;;;;;;74.65;9.60;;;;;;;33.60;22.83;99586.06;5092274;28;20027;-47
2023/10/06 11:35:17;;;;;;;71.10;11.18;;;;;;;33.61;22.72;99584.97;5092269;28;20024;-47
2023/10/06 11:37:44;;;;;;;34.35;6.05;;;;;;;33.74;22.54;99582.31;5092334;28;20103;-47
2023/10/06 11:40:12;;;;;;;11.07;4.15;;;;;;;33.75;22.59;99575.75;5092183;28;20016;-47
2023/10/06 11:42:41;;;;;;;107.75;11.52;;;;;;;33.57;22.51;99585.94;5091952;28;20099;-47
2023/10/06 11:45:36;;;;;;;34.55;5.32;;;;;;;33.32;23.06;99577.63;5092065;28;20545;-48
2023/10/06 11:48:02;;;;;;;222.40;24.90;;;;;;;33.16;23.31;99576.63;5092118;28;20053;-48
2023/10/06 11:50:35;;;;;;;128.60;14.48;;;;;;;33.09;23.25;99571.69;5090918;28;20103;-47
2023/10/06 11:53:01;;;;;;;188.63;19.95;;;;;;;33.12;23.74;99568.34;5092133;28;20073;-47
2023/10/06 11:55:31;;;;;;;136.93;15.38;;;;;;;33.15;23.48;99567.66;5090725;28;20482;-47